<?xml version="1.0" encoding="UTF-8" standalone="no" ?>
<gpx xmlns="http://www.topografix.com/GPX/1/1" xmlns:xsi="http://www.w3.org/2001/XMLSchema-instance" xsi:schemaLocation="http://www.topografix.com/GPX/1/1 http://www.topografix.com/GPX/1/1/gpx.xsd" version="1.1" creator="VisuGPX - https://www.visugpx.com">
  <metadata>
    <name>TW50 2020 </name>
  </metadata>
  <trk>
    <name><![CDATA[12109501-TRANSV WEST 50 GRASSE]]></name>
    <trkseg>
      <trkpt lat="43.69973" lon="6.84905">
        <ele>718</ele>
        <time>2020-10-02T06:45:35Z</time>
      </trkpt>
      <trkpt lat="43.69956" lon="6.84943">
        <ele>718</ele>
        <time>2020-10-02T06:45:43Z</time>
      </trkpt>
      <trkpt lat="43.69935" lon="6.84965">
        <ele>717</ele>
        <time>2020-10-02T06:45:49Z</time>
      </trkpt>
      <trkpt lat="43.69897" lon="6.85021">
        <ele>717</ele>
        <time>2020-10-02T06:46:02Z</time>
      </trkpt>
      <trkpt lat="43.69877" lon="6.85065">
        <ele>716</ele>
        <time>2020-10-02T06:46:10Z</time>
      </trkpt>
      <trkpt lat="43.69791" lon="6.85004">
        <ele>716</ele>
        <time>2020-10-02T06:46:33Z</time>
      </trkpt>
      <trkpt lat="43.69829" lon="6.84835">
        <ele>718</ele>
        <time>2020-10-02T06:47:03Z</time>
      </trkpt>
      <trkpt lat="43.69721" lon="6.84826">
        <ele>709</ele>
        <time>2020-10-02T06:47:28Z</time>
      </trkpt>
      <trkpt lat="43.69694" lon="6.84845">
        <ele>709</ele>
        <time>2020-10-02T06:47:35Z</time>
      </trkpt>
      <trkpt lat="43.69571" lon="6.84824">
        <ele>702</ele>
        <time>2020-10-02T06:48:04Z</time>
      </trkpt>
      <trkpt lat="43.69502" lon="6.84821">
        <ele>699</ele>
        <time>2020-10-02T06:48:20Z</time>
      </trkpt>
      <trkpt lat="43.69473" lon="6.84824">
        <ele>698</ele>
        <time>2020-10-02T06:48:27Z</time>
      </trkpt>
      <trkpt lat="43.69414" lon="6.84794">
        <ele>696</ele>
        <time>2020-10-02T06:48:42Z</time>
      </trkpt>
      <trkpt lat="43.69355" lon="6.84818">
        <ele>697</ele>
        <time>2020-10-02T06:48:56Z</time>
      </trkpt>
      <trkpt lat="43.69309" lon="6.8481">
        <ele>697</ele>
        <time>2020-10-02T06:49:07Z</time>
      </trkpt>
      <trkpt lat="43.69253" lon="6.84832">
        <ele>701</ele>
        <time>2020-10-02T06:49:21Z</time>
      </trkpt>
      <trkpt lat="43.69238" lon="6.84842">
        <ele>702</ele>
        <time>2020-10-02T06:49:24Z</time>
      </trkpt>
      <trkpt lat="43.69205" lon="6.8481">
        <ele>703</ele>
        <time>2020-10-02T06:49:34Z</time>
      </trkpt>
      <trkpt lat="43.69155" lon="6.84849">
        <ele>706</ele>
        <time>2020-10-02T06:49:47Z</time>
      </trkpt>
      <trkpt lat="43.69139" lon="6.84888">
        <ele>708</ele>
        <time>2020-10-02T06:49:55Z</time>
      </trkpt>
      <trkpt lat="43.69053" lon="6.84898">
        <ele>704</ele>
        <time>2020-10-02T06:50:15Z</time>
      </trkpt>
      <trkpt lat="43.69057" lon="6.84773">
        <ele>701</ele>
        <time>2020-10-02T06:50:36Z</time>
      </trkpt>
      <trkpt lat="43.69047" lon="6.84667">
        <ele>698</ele>
        <time>2020-10-02T06:50:54Z</time>
      </trkpt>
      <trkpt lat="43.69044" lon="6.84535">
        <ele>694</ele>
        <time>2020-10-02T06:51:16Z</time>
      </trkpt>
      <trkpt lat="43.69029" lon="6.84404">
        <ele>691</ele>
        <time>2020-10-02T06:51:39Z</time>
      </trkpt>
      <trkpt lat="43.69044" lon="6.84332">
        <ele>691</ele>
        <time>2020-10-02T06:51:52Z</time>
      </trkpt>
      <trkpt lat="43.68925" lon="6.84278">
        <ele>688</ele>
        <time>2020-10-02T06:52:21Z</time>
      </trkpt>
      <trkpt lat="43.68869" lon="6.84241">
        <ele>685</ele>
        <time>2020-10-02T06:52:35Z</time>
      </trkpt>
      <trkpt lat="43.68752" lon="6.8412">
        <ele>678</ele>
        <time>2020-10-02T06:53:09Z</time>
      </trkpt>
      <trkpt lat="43.68753" lon="6.84011">
        <ele>680</ele>
        <time>2020-10-02T06:53:28Z</time>
      </trkpt>
      <trkpt lat="43.68778" lon="6.83973">
        <ele>680</ele>
        <time>2020-10-02T06:53:36Z</time>
      </trkpt>
      <trkpt lat="43.68805" lon="6.83889">
        <ele>680</ele>
        <time>2020-10-02T06:53:52Z</time>
      </trkpt>
      <trkpt lat="43.68812" lon="6.83855">
        <ele>681</ele>
        <time>2020-10-02T06:53:58Z</time>
      </trkpt>
      <trkpt lat="43.68962" lon="6.83787">
        <ele>677</ele>
        <time>2020-10-02T06:54:35Z</time>
      </trkpt>
      <trkpt lat="43.68996" lon="6.83747">
        <ele>675</ele>
        <time>2020-10-02T06:54:45Z</time>
      </trkpt>
      <trkpt lat="43.69014" lon="6.83701">
        <ele>675</ele>
        <time>2020-10-02T06:54:54Z</time>
      </trkpt>
      <trkpt lat="43.69014" lon="6.83627">
        <ele>674</ele>
        <time>2020-10-02T06:55:07Z</time>
      </trkpt>
      <trkpt lat="43.69035" lon="6.83509">
        <ele>672</ele>
        <time>2020-10-02T06:55:27Z</time>
      </trkpt>
      <trkpt lat="43.69049" lon="6.83476">
        <ele>670</ele>
        <time>2020-10-02T06:55:34Z</time>
      </trkpt>
      <trkpt lat="43.69076" lon="6.83464">
        <ele>667</ele>
        <time>2020-10-02T06:55:40Z</time>
      </trkpt>
      <trkpt lat="43.69102" lon="6.83417">
        <ele>665</ele>
        <time>2020-10-02T06:55:50Z</time>
      </trkpt>
      <trkpt lat="43.69097" lon="6.83381">
        <ele>665</ele>
        <time>2020-10-02T06:55:56Z</time>
      </trkpt>
      <trkpt lat="43.69121" lon="6.83227">
        <ele>662</ele>
        <time>2020-10-02T06:56:23Z</time>
      </trkpt>
      <trkpt lat="43.6911" lon="6.83001">
        <ele>659</ele>
        <time>2020-10-02T06:57:01Z</time>
      </trkpt>
      <trkpt lat="43.69152" lon="6.82919">
        <ele>656</ele>
        <time>2020-10-02T06:57:18Z</time>
      </trkpt>
      <trkpt lat="43.69138" lon="6.82867">
        <ele>655</ele>
        <time>2020-10-02T06:57:28Z</time>
      </trkpt>
      <trkpt lat="43.69146" lon="6.82789">
        <ele>652</ele>
        <time>2020-10-02T06:57:41Z</time>
      </trkpt>
      <trkpt lat="43.69106" lon="6.82733">
        <ele>652</ele>
        <time>2020-10-02T06:57:54Z</time>
      </trkpt>
      <trkpt lat="43.69123" lon="6.8266">
        <ele>648</ele>
        <time>2020-10-02T06:58:07Z</time>
      </trkpt>
      <trkpt lat="43.69142" lon="6.82624">
        <ele>646</ele>
        <time>2020-10-02T06:58:15Z</time>
      </trkpt>
      <trkpt lat="43.69141" lon="6.82599">
        <ele>645</ele>
        <time>2020-10-02T06:58:19Z</time>
      </trkpt>
      <trkpt lat="43.69107" lon="6.82568">
        <ele>645</ele>
        <time>2020-10-02T06:58:28Z</time>
      </trkpt>
      <trkpt lat="43.69075" lon="6.82496">
        <ele>643</ele>
        <time>2020-10-02T06:58:43Z</time>
      </trkpt>
      <trkpt lat="43.69039" lon="6.82404">
        <ele>645</ele>
        <time>2020-10-02T06:59:00Z</time>
      </trkpt>
      <trkpt lat="43.69011" lon="6.82383">
        <ele>647</ele>
        <time>2020-10-02T06:59:08Z</time>
      </trkpt>
      <trkpt lat="43.69006" lon="6.8229">
        <ele>647</ele>
        <time>2020-10-02T06:59:23Z</time>
      </trkpt>
      <trkpt lat="43.68989" lon="6.82251">
        <ele>646</ele>
        <time>2020-10-02T06:59:31Z</time>
      </trkpt>
      <trkpt lat="43.69" lon="6.82203">
        <ele>644</ele>
        <time>2020-10-02T06:59:40Z</time>
      </trkpt>
      <trkpt lat="43.69035" lon="6.8209">
        <ele>639</ele>
        <time>2020-10-02T07:00:00Z</time>
      </trkpt>
      <trkpt lat="43.69036" lon="6.82061">
        <ele>638</ele>
        <time>2020-10-02T07:00:05Z</time>
      </trkpt>
      <trkpt lat="43.69067" lon="6.81949">
        <ele>633</ele>
        <time>2020-10-02T07:00:26Z</time>
      </trkpt>
      <trkpt lat="43.69012" lon="6.818">
        <ele>631</ele>
        <time>2020-10-02T07:00:54Z</time>
      </trkpt>
      <trkpt lat="43.68975" lon="6.8164">
        <ele>630</ele>
        <time>2020-10-02T07:01:22Z</time>
      </trkpt>
      <trkpt lat="43.68949" lon="6.81589">
        <ele>631</ele>
        <time>2020-10-02T07:01:33Z</time>
      </trkpt>
      <trkpt lat="43.6891" lon="6.8148">
        <ele>630</ele>
        <time>2020-10-02T07:01:53Z</time>
      </trkpt>
      <trkpt lat="43.69033" lon="6.81538">
        <ele>625</ele>
        <time>2020-10-02T07:02:24Z</time>
      </trkpt>
      <trkpt lat="43.69073" lon="6.81503">
        <ele>622</ele>
        <time>2020-10-02T07:02:35Z</time>
      </trkpt>
      <trkpt lat="43.69094" lon="6.81442">
        <ele>622</ele>
        <time>2020-10-02T07:02:46Z</time>
      </trkpt>
      <trkpt lat="43.69255" lon="6.81433">
        <ele>617</ele>
        <time>2020-10-02T07:03:24Z</time>
      </trkpt>
      <trkpt lat="43.693" lon="6.81373">
        <ele>618</ele>
        <time>2020-10-02T07:03:38Z</time>
      </trkpt>
      <trkpt lat="43.69295" lon="6.81329">
        <ele>615</ele>
        <time>2020-10-02T07:03:46Z</time>
      </trkpt>
      <trkpt lat="43.69356" lon="6.81257">
        <ele>616</ele>
        <time>2020-10-02T07:04:05Z</time>
      </trkpt>
      <trkpt lat="43.69366" lon="6.81194">
        <ele>617</ele>
        <time>2020-10-02T07:04:15Z</time>
      </trkpt>
      <trkpt lat="43.69314" lon="6.81135">
        <ele>611</ele>
        <time>2020-10-02T07:04:31Z</time>
      </trkpt>
      <trkpt lat="43.69277" lon="6.81115">
        <ele>611</ele>
        <time>2020-10-02T07:04:40Z</time>
      </trkpt>
      <trkpt lat="43.6929" lon="6.81044">
        <ele>612</ele>
        <time>2020-10-02T07:04:53Z</time>
      </trkpt>
      <trkpt lat="43.69324" lon="6.80958">
        <ele>607</ele>
        <time>2020-10-02T07:05:09Z</time>
      </trkpt>
      <trkpt lat="43.69354" lon="6.80926">
        <ele>606</ele>
        <time>2020-10-02T07:05:18Z</time>
      </trkpt>
      <trkpt lat="43.6939" lon="6.80858">
        <ele>605</ele>
        <time>2020-10-02T07:05:32Z</time>
      </trkpt>
      <trkpt lat="43.69364" lon="6.80801">
        <ele>604</ele>
        <time>2020-10-02T07:05:44Z</time>
      </trkpt>
      <trkpt lat="43.69341" lon="6.80762">
        <ele>602</ele>
        <time>2020-10-02T07:05:52Z</time>
      </trkpt>
      <trkpt lat="43.69333" lon="6.80683">
        <ele>599</ele>
        <time>2020-10-02T07:06:06Z</time>
      </trkpt>
      <trkpt lat="43.6936" lon="6.80618">
        <ele>600</ele>
        <time>2020-10-02T07:06:18Z</time>
      </trkpt>
      <trkpt lat="43.69371" lon="6.80533">
        <ele>602</ele>
        <time>2020-10-02T07:06:33Z</time>
      </trkpt>
      <trkpt lat="43.69403" lon="6.80491">
        <ele>598</ele>
        <time>2020-10-02T07:06:43Z</time>
      </trkpt>
      <trkpt lat="43.69414" lon="6.80452">
        <ele>599</ele>
        <time>2020-10-02T07:06:50Z</time>
      </trkpt>
      <trkpt lat="43.69422" lon="6.80362">
        <ele>606</ele>
        <time>2020-10-02T07:07:06Z</time>
      </trkpt>
      <trkpt lat="43.69513" lon="6.79983">
        <ele>610</ele>
        <time>2020-10-02T07:08:13Z</time>
      </trkpt>
      <trkpt lat="43.69573" lon="6.79835">
        <ele>609</ele>
        <time>2020-10-02T07:08:42Z</time>
      </trkpt>
      <trkpt lat="43.69594" lon="6.79654">
        <ele>600</ele>
        <time>2020-10-02T07:09:13Z</time>
      </trkpt>
      <trkpt lat="43.69476" lon="6.79301">
        <ele>603</ele>
        <time>2020-10-02T07:10:18Z</time>
      </trkpt>
      <trkpt lat="43.6933" lon="6.79131">
        <ele>597</ele>
        <time>2020-10-02T07:11:03Z</time>
      </trkpt>
      <trkpt lat="43.69218" lon="6.79127">
        <ele>610</ele>
        <time>2020-10-02T07:11:29Z</time>
      </trkpt>
      <trkpt lat="43.69153" lon="6.7907">
        <ele>613</ele>
        <time>2020-10-02T07:11:47Z</time>
      </trkpt>
      <trkpt lat="43.69268" lon="6.78821">
        <ele>596</ele>
        <time>2020-10-02T07:12:37Z</time>
      </trkpt>
      <trkpt lat="43.69247" lon="6.78666">
        <ele>603</ele>
        <time>2020-10-02T07:13:04Z</time>
      </trkpt>
      <trkpt lat="43.69265" lon="6.78521">
        <ele>584</ele>
        <time>2020-10-02T07:13:28Z</time>
      </trkpt>
      <trkpt lat="43.69203" lon="6.78453">
        <ele>603</ele>
        <time>2020-10-02T07:13:47Z</time>
      </trkpt>
      <trkpt lat="43.69109" lon="6.78229">
        <ele>613</ele>
        <time>2020-10-02T07:14:31Z</time>
      </trkpt>
      <trkpt lat="43.69192" lon="6.7807">
        <ele>590</ele>
        <time>2020-10-02T07:15:04Z</time>
      </trkpt>
      <trkpt lat="43.69157" lon="6.77962">
        <ele>606</ele>
        <time>2020-10-02T07:15:24Z</time>
      </trkpt>
      <trkpt lat="43.69163" lon="6.7772">
        <ele>591</ele>
        <time>2020-10-02T07:16:05Z</time>
      </trkpt>
      <trkpt lat="43.6902" lon="6.77327">
        <ele>588</ele>
        <time>2020-10-02T07:17:19Z</time>
      </trkpt>
      <trkpt lat="43.69016" lon="6.77363">
        <ele>604</ele>
        <time>2020-10-02T07:17:25Z</time>
      </trkpt>
      <trkpt lat="43.68985" lon="6.77324">
        <ele>596</ele>
        <time>2020-10-02T07:17:35Z</time>
      </trkpt>
      <trkpt lat="43.68931" lon="6.7736">
        <ele>621</ele>
        <time>2020-10-02T07:17:49Z</time>
      </trkpt>
      <trkpt lat="43.68909" lon="6.77348">
        <ele>617</ele>
        <time>2020-10-02T07:17:54Z</time>
      </trkpt>
      <trkpt lat="43.68906" lon="6.77324">
        <ele>603</ele>
        <time>2020-10-02T07:17:59Z</time>
      </trkpt>
      <trkpt lat="43.68899" lon="6.77299">
        <ele>591</ele>
        <time>2020-10-02T07:18:03Z</time>
      </trkpt>
      <trkpt lat="43.68879" lon="6.77312">
        <ele>605</ele>
        <time>2020-10-02T07:18:08Z</time>
      </trkpt>
      <trkpt lat="43.68843" lon="6.77308">
        <ele>615</ele>
        <time>2020-10-02T07:18:17Z</time>
      </trkpt>
      <trkpt lat="43.68819" lon="6.7728">
        <ele>615</ele>
        <time>2020-10-02T07:18:24Z</time>
      </trkpt>
      <trkpt lat="43.68782" lon="6.77184">
        <ele>613</ele>
        <time>2020-10-02T07:18:42Z</time>
      </trkpt>
      <trkpt lat="43.68778" lon="6.77158">
        <ele>607</ele>
        <time>2020-10-02T07:18:47Z</time>
      </trkpt>
      <trkpt lat="43.68766" lon="6.77145">
        <ele>612</ele>
        <time>2020-10-02T07:18:50Z</time>
      </trkpt>
      <trkpt lat="43.68757" lon="6.77168">
        <ele>627</ele>
        <time>2020-10-02T07:18:55Z</time>
      </trkpt>
      <trkpt lat="43.68735" lon="6.77153">
        <ele>628</ele>
        <time>2020-10-02T07:19:01Z</time>
      </trkpt>
      <trkpt lat="43.68733" lon="6.77114">
        <ele>611</ele>
        <time>2020-10-02T07:19:07Z</time>
      </trkpt>
      <trkpt lat="43.6868" lon="6.77172">
        <ele>646</ele>
        <time>2020-10-02T07:19:23Z</time>
      </trkpt>
      <trkpt lat="43.68703" lon="6.77105">
        <ele>605</ele>
        <time>2020-10-02T07:19:35Z</time>
      </trkpt>
      <trkpt lat="43.68654" lon="6.77159">
        <ele>636</ele>
        <time>2020-10-02T07:19:50Z</time>
      </trkpt>
      <trkpt lat="43.68618" lon="6.77157">
        <ele>626</ele>
        <time>2020-10-02T07:19:58Z</time>
      </trkpt>
      <trkpt lat="43.68543" lon="6.77148">
        <ele>609</ele>
        <time>2020-10-02T07:20:16Z</time>
      </trkpt>
      <trkpt lat="43.68458" lon="6.77101">
        <ele>598</ele>
        <time>2020-10-02T07:20:37Z</time>
      </trkpt>
      <trkpt lat="43.68418" lon="6.7709">
        <ele>606</ele>
        <time>2020-10-02T07:20:47Z</time>
      </trkpt>
      <trkpt lat="43.68372" lon="6.77088">
        <ele>621</ele>
        <time>2020-10-02T07:20:58Z</time>
      </trkpt>
      <trkpt lat="43.68362" lon="6.77101">
        <ele>631</ele>
        <time>2020-10-02T07:21:01Z</time>
      </trkpt>
      <trkpt lat="43.68338" lon="6.77088">
        <ele>633</ele>
        <time>2020-10-02T07:21:07Z</time>
      </trkpt>
      <trkpt lat="43.68333" lon="6.77074">
        <ele>628</ele>
        <time>2020-10-02T07:21:10Z</time>
      </trkpt>
      <trkpt lat="43.68313" lon="6.77064">
        <ele>634</ele>
        <time>2020-10-02T07:21:15Z</time>
      </trkpt>
      <trkpt lat="43.683" lon="6.77011">
        <ele>618</ele>
        <time>2020-10-02T07:21:24Z</time>
      </trkpt>
      <trkpt lat="43.68279" lon="6.76995">
        <ele>621</ele>
        <time>2020-10-02T07:21:30Z</time>
      </trkpt>
      <trkpt lat="43.68255" lon="6.76996">
        <ele>632</ele>
        <time>2020-10-02T07:21:35Z</time>
      </trkpt>
      <trkpt lat="43.68235" lon="6.7698">
        <ele>631</ele>
        <time>2020-10-02T07:21:41Z</time>
      </trkpt>
      <trkpt lat="43.68263" lon="6.76966">
        <ele>614</ele>
        <time>2020-10-02T07:21:48Z</time>
      </trkpt>
      <trkpt lat="43.68254" lon="6.76941">
        <ele>607</ele>
        <time>2020-10-02T07:21:52Z</time>
      </trkpt>
      <trkpt lat="43.68231" lon="6.76936">
        <ele>610</ele>
        <time>2020-10-02T07:21:58Z</time>
      </trkpt>
      <trkpt lat="43.68219" lon="6.76898">
        <ele>595</ele>
        <time>2020-10-02T07:22:05Z</time>
      </trkpt>
      <trkpt lat="43.68168" lon="6.7689">
        <ele>601</ele>
        <time>2020-10-02T07:22:17Z</time>
      </trkpt>
      <trkpt lat="43.6812" lon="6.76868">
        <ele>603</ele>
        <time>2020-10-02T07:22:29Z</time>
      </trkpt>
      <trkpt lat="43.68068" lon="6.76808">
        <ele>589</ele>
        <time>2020-10-02T07:22:44Z</time>
      </trkpt>
      <trkpt lat="43.68022" lon="6.76782">
        <ele>588</ele>
        <time>2020-10-02T07:22:56Z</time>
      </trkpt>
      <trkpt lat="43.67986" lon="6.76809">
        <ele>606</ele>
        <time>2020-10-02T07:23:06Z</time>
      </trkpt>
      <trkpt lat="43.67929" lon="6.76836">
        <ele>618</ele>
        <time>2020-10-02T07:23:20Z</time>
      </trkpt>
      <trkpt lat="43.67861" lon="6.76854">
        <ele>625</ele>
        <time>2020-10-02T07:23:36Z</time>
      </trkpt>
      <trkpt lat="43.6778" lon="6.76869">
        <ele>619</ele>
        <time>2020-10-02T07:23:55Z</time>
      </trkpt>
      <trkpt lat="43.67708" lon="6.76899">
        <ele>623</ele>
        <time>2020-10-02T07:24:12Z</time>
      </trkpt>
      <trkpt lat="43.67669" lon="6.76884">
        <ele>613</ele>
        <time>2020-10-02T07:24:22Z</time>
      </trkpt>
      <trkpt lat="43.67606" lon="6.76908">
        <ele>605</ele>
        <time>2020-10-02T07:24:37Z</time>
      </trkpt>
      <trkpt lat="43.67568" lon="6.76997">
        <ele>606</ele>
        <time>2020-10-02T07:24:55Z</time>
      </trkpt>
      <trkpt lat="43.67554" lon="6.77044">
        <ele>608</ele>
        <time>2020-10-02T07:25:03Z</time>
      </trkpt>
      <trkpt lat="43.67539" lon="6.77032">
        <ele>602</ele>
        <time>2020-10-02T07:25:07Z</time>
      </trkpt>
      <trkpt lat="43.67527" lon="6.77046">
        <ele>600</ele>
        <time>2020-10-02T07:25:11Z</time>
      </trkpt>
      <trkpt lat="43.67524" lon="6.77014">
        <ele>595</ele>
        <time>2020-10-02T07:25:16Z</time>
      </trkpt>
      <trkpt lat="43.67549" lon="6.76919">
        <ele>591</ele>
        <time>2020-10-02T07:25:33Z</time>
      </trkpt>
      <trkpt lat="43.6751" lon="6.76939">
        <ele>582</ele>
        <time>2020-10-02T07:25:43Z</time>
      </trkpt>
      <trkpt lat="43.67478" lon="6.7703">
        <ele>583</ele>
        <time>2020-10-02T07:26:00Z</time>
      </trkpt>
      <trkpt lat="43.6742" lon="6.77078">
        <ele>570</ele>
        <time>2020-10-02T07:26:16Z</time>
      </trkpt>
      <trkpt lat="43.67344" lon="6.77203">
        <ele>560</ele>
        <time>2020-10-02T07:26:44Z</time>
      </trkpt>
      <trkpt lat="43.67239" lon="6.77308">
        <ele>546</ele>
        <time>2020-10-02T07:27:14Z</time>
      </trkpt>
      <trkpt lat="43.67202" lon="6.77367">
        <ele>540</ele>
        <time>2020-10-02T07:27:27Z</time>
      </trkpt>
      <trkpt lat="43.67138" lon="6.77515">
        <ele>532</ele>
        <time>2020-10-02T07:27:56Z</time>
      </trkpt>
      <trkpt lat="43.67109" lon="6.77597">
        <ele>530</ele>
        <time>2020-10-02T07:28:12Z</time>
      </trkpt>
      <trkpt lat="43.67111" lon="6.77768">
        <ele>533</ele>
        <time>2020-10-02T07:28:40Z</time>
      </trkpt>
      <trkpt lat="43.67054" lon="6.77956">
        <ele>525</ele>
        <time>2020-10-02T07:29:15Z</time>
      </trkpt>
      <trkpt lat="43.6708" lon="6.78114">
        <ele>526</ele>
        <time>2020-10-02T07:29:42Z</time>
      </trkpt>
      <trkpt lat="43.67124" lon="6.78205">
        <ele>532</ele>
        <time>2020-10-02T07:30:01Z</time>
      </trkpt>
      <trkpt lat="43.6719" lon="6.78557">
        <ele>529</ele>
        <time>2020-10-02T07:31:02Z</time>
      </trkpt>
      <trkpt lat="43.67228" lon="6.78563">
        <ele>532</ele>
        <time>2020-10-02T07:31:11Z</time>
      </trkpt>
      <trkpt lat="43.67242" lon="6.78685">
        <ele>532</ele>
        <time>2020-10-02T07:31:32Z</time>
      </trkpt>
      <trkpt lat="43.67247" lon="6.78855">
        <ele>532</ele>
        <time>2020-10-02T07:32:01Z</time>
      </trkpt>
      <trkpt lat="43.67339" lon="6.79049">
        <ele>533</ele>
        <time>2020-10-02T07:32:40Z</time>
      </trkpt>
      <trkpt lat="43.67199" lon="6.79164">
        <ele>520</ele>
        <time>2020-10-02T07:33:18Z</time>
      </trkpt>
      <trkpt lat="43.672" lon="6.79203">
        <ele>519</ele>
        <time>2020-10-02T07:33:25Z</time>
      </trkpt>
      <trkpt lat="43.67181" lon="6.79243">
        <ele>517</ele>
        <time>2020-10-02T07:33:33Z</time>
      </trkpt>
      <trkpt lat="43.67098" lon="6.79243">
        <ele>511</ele>
        <time>2020-10-02T07:33:52Z</time>
      </trkpt>
      <trkpt lat="43.67084" lon="6.79349">
        <ele>510</ele>
        <time>2020-10-02T07:34:10Z</time>
      </trkpt>
      <trkpt lat="43.67084" lon="6.79571">
        <ele>510</ele>
        <time>2020-10-02T07:34:48Z</time>
      </trkpt>
      <trkpt lat="43.67101" lon="6.79603">
        <ele>511</ele>
        <time>2020-10-02T07:34:54Z</time>
      </trkpt>
      <trkpt lat="43.67084" lon="6.79728">
        <ele>509</ele>
        <time>2020-10-02T07:35:16Z</time>
      </trkpt>
      <trkpt lat="43.6703" lon="6.79774">
        <ele>505</ele>
        <time>2020-10-02T07:35:31Z</time>
      </trkpt>
      <trkpt lat="43.67025" lon="6.79882">
        <ele>503</ele>
        <time>2020-10-02T07:35:49Z</time>
      </trkpt>
      <trkpt lat="43.66998" lon="6.79901">
        <ele>502</ele>
        <time>2020-10-02T07:35:56Z</time>
      </trkpt>
      <trkpt lat="43.67001" lon="6.79945">
        <ele>503</ele>
        <time>2020-10-02T07:36:03Z</time>
      </trkpt>
      <trkpt lat="43.67025" lon="6.79976">
        <ele>505</ele>
        <time>2020-10-02T07:36:11Z</time>
      </trkpt>
      <trkpt lat="43.6706" lon="6.80008">
        <ele>507</ele>
        <time>2020-10-02T07:36:21Z</time>
      </trkpt>
      <trkpt lat="43.67077" lon="6.80048">
        <ele>508</ele>
        <time>2020-10-02T07:36:29Z</time>
      </trkpt>
      <trkpt lat="43.67067" lon="6.80143">
        <ele>511</ele>
        <time>2020-10-02T07:36:45Z</time>
      </trkpt>
      <trkpt lat="43.67081" lon="6.80244">
        <ele>512</ele>
        <time>2020-10-02T07:37:02Z</time>
      </trkpt>
      <trkpt lat="43.67072" lon="6.80452">
        <ele>518</ele>
        <time>2020-10-02T07:37:38Z</time>
      </trkpt>
      <trkpt lat="43.67095" lon="6.80518">
        <ele>520</ele>
        <time>2020-10-02T07:37:50Z</time>
      </trkpt>
      <trkpt lat="43.67074" lon="6.80549">
        <ele>519</ele>
        <time>2020-10-02T07:37:57Z</time>
      </trkpt>
      <trkpt lat="43.6706" lon="6.80717">
        <ele>524</ele>
        <time>2020-10-02T07:38:26Z</time>
      </trkpt>
      <trkpt lat="43.67076" lon="6.80774">
        <ele>523</ele>
        <time>2020-10-02T07:38:36Z</time>
      </trkpt>
      <trkpt lat="43.67029" lon="6.8085">
        <ele>526</ele>
        <time>2020-10-02T07:38:53Z</time>
      </trkpt>
      <trkpt lat="43.67007" lon="6.80872">
        <ele>527</ele>
        <time>2020-10-02T07:38:59Z</time>
      </trkpt>
      <trkpt lat="43.66993" lon="6.80895">
        <ele>528</ele>
        <time>2020-10-02T07:39:04Z</time>
      </trkpt>
      <trkpt lat="43.66996" lon="6.80925">
        <ele>528</ele>
        <time>2020-10-02T07:39:09Z</time>
      </trkpt>
      <trkpt lat="43.67035" lon="6.81015">
        <ele>529</ele>
        <time>2020-10-02T07:39:27Z</time>
      </trkpt>
      <trkpt lat="43.67008" lon="6.81201">
        <ele>531</ele>
        <time>2020-10-02T07:39:59Z</time>
      </trkpt>
      <trkpt lat="43.67068" lon="6.81428">
        <ele>536</ele>
        <time>2020-10-02T07:40:40Z</time>
      </trkpt>
      <trkpt lat="43.67065" lon="6.81557">
        <ele>538</ele>
        <time>2020-10-02T07:41:02Z</time>
      </trkpt>
      <trkpt lat="43.67014" lon="6.8164">
        <ele>539</ele>
        <time>2020-10-02T07:41:20Z</time>
      </trkpt>
      <trkpt lat="43.6694" lon="6.81814">
        <ele>544</ele>
        <time>2020-10-02T07:41:54Z</time>
      </trkpt>
      <trkpt lat="43.6693" lon="6.81921">
        <ele>547</ele>
        <time>2020-10-02T07:42:13Z</time>
      </trkpt>
      <trkpt lat="43.66865" lon="6.82054">
        <ele>551</ele>
        <time>2020-10-02T07:42:40Z</time>
      </trkpt>
      <trkpt lat="43.6687" lon="6.82141">
        <ele>549</ele>
        <time>2020-10-02T07:42:54Z</time>
      </trkpt>
      <trkpt lat="43.66808" lon="6.82444">
        <ele>553</ele>
        <time>2020-10-02T07:43:48Z</time>
      </trkpt>
      <trkpt lat="43.66742" lon="6.82552">
        <ele>557</ele>
        <time>2020-10-02T07:44:11Z</time>
      </trkpt>
      <trkpt lat="43.6674" lon="6.82637">
        <ele>556</ele>
        <time>2020-10-02T07:44:26Z</time>
      </trkpt>
      <trkpt lat="43.66693" lon="6.82776">
        <ele>558</ele>
        <time>2020-10-02T07:44:52Z</time>
      </trkpt>
      <trkpt lat="43.66711" lon="6.82848">
        <ele>561</ele>
        <time>2020-10-02T07:45:05Z</time>
      </trkpt>
      <trkpt lat="43.66657" lon="6.8298">
        <ele>562</ele>
        <time>2020-10-02T07:45:30Z</time>
      </trkpt>
      <trkpt lat="43.66505" lon="6.83093">
        <ele>567</ele>
        <time>2020-10-02T07:46:11Z</time>
      </trkpt>
      <trkpt lat="43.66463" lon="6.83208">
        <ele>571</ele>
        <time>2020-10-02T07:46:32Z</time>
      </trkpt>
      <trkpt lat="43.66457" lon="6.83274">
        <ele>570</ele>
        <time>2020-10-02T07:46:44Z</time>
      </trkpt>
      <trkpt lat="43.66433" lon="6.83284">
        <ele>571</ele>
        <time>2020-10-02T07:46:49Z</time>
      </trkpt>
      <trkpt lat="43.66397" lon="6.83371">
        <ele>573</ele>
        <time>2020-10-02T07:47:06Z</time>
      </trkpt>
      <trkpt lat="43.66359" lon="6.83388">
        <ele>575</ele>
        <time>2020-10-02T07:47:16Z</time>
      </trkpt>
      <trkpt lat="43.66316" lon="6.83414">
        <ele>577</ele>
        <time>2020-10-02T07:47:27Z</time>
      </trkpt>
      <trkpt lat="43.66286" lon="6.8347">
        <ele>579</ele>
        <time>2020-10-02T07:47:38Z</time>
      </trkpt>
      <trkpt lat="43.66264" lon="6.83534">
        <ele>580</ele>
        <time>2020-10-02T07:47:50Z</time>
      </trkpt>
      <trkpt lat="43.66186" lon="6.83638">
        <ele>591</ele>
        <time>2020-10-02T07:48:16Z</time>
      </trkpt>
      <trkpt lat="43.66254" lon="6.82844">
        <ele>640</ele>
        <time>2020-10-02T07:50:31Z</time>
      </trkpt>
      <trkpt lat="43.66202" lon="6.82818">
        <ele>642</ele>
        <time>2020-10-02T07:50:44Z</time>
      </trkpt>
      <trkpt lat="43.6609" lon="6.82984">
        <ele>636</ele>
        <time>2020-10-02T07:51:22Z</time>
      </trkpt>
      <trkpt lat="43.66014" lon="6.83202">
        <ele>619</ele>
        <time>2020-10-02T07:52:03Z</time>
      </trkpt>
      <trkpt lat="43.6592" lon="6.833">
        <ele>609</ele>
        <time>2020-10-02T07:52:30Z</time>
      </trkpt>
      <trkpt lat="43.65764" lon="6.83258">
        <ele>602</ele>
        <time>2020-10-02T07:53:08Z</time>
      </trkpt>
      <trkpt lat="43.65722" lon="6.83147">
        <ele>595</ele>
        <time>2020-10-02T07:53:29Z</time>
      </trkpt>
      <trkpt lat="43.65623" lon="6.83248">
        <ele>598</ele>
        <time>2020-10-02T07:53:57Z</time>
      </trkpt>
      <trkpt lat="43.65584" lon="6.83318">
        <ele>599</ele>
        <time>2020-10-02T07:54:12Z</time>
      </trkpt>
      <trkpt lat="43.65559" lon="6.83269">
        <ele>595</ele>
        <time>2020-10-02T07:54:22Z</time>
      </trkpt>
      <trkpt lat="43.65594" lon="6.83218">
        <ele>593</ele>
        <time>2020-10-02T07:54:34Z</time>
      </trkpt>
      <trkpt lat="43.65584" lon="6.83183">
        <ele>587</ele>
        <time>2020-10-02T07:54:41Z</time>
      </trkpt>
      <trkpt lat="43.65608" lon="6.83146">
        <ele>583</ele>
        <time>2020-10-02T07:54:49Z</time>
      </trkpt>
      <trkpt lat="43.65549" lon="6.83109">
        <ele>569</ele>
        <time>2020-10-02T07:55:04Z</time>
      </trkpt>
      <trkpt lat="43.65562" lon="6.83078">
        <ele>565</ele>
        <time>2020-10-02T07:55:10Z</time>
      </trkpt>
      <trkpt lat="43.65529" lon="6.83024">
        <ele>552</ele>
        <time>2020-10-02T07:55:22Z</time>
      </trkpt>
      <trkpt lat="43.65426" lon="6.83131">
        <ele>551</ele>
        <time>2020-10-02T07:55:52Z</time>
      </trkpt>
      <trkpt lat="43.65362" lon="6.83228">
        <ele>553</ele>
        <time>2020-10-02T07:56:15Z</time>
      </trkpt>
      <trkpt lat="43.65231" lon="6.83314">
        <ele>542</ele>
        <time>2020-10-02T07:56:48Z</time>
      </trkpt>
      <trkpt lat="43.65174" lon="6.83328">
        <ele>536</ele>
        <time>2020-10-02T07:57:02Z</time>
      </trkpt>
      <trkpt lat="43.65135" lon="6.83324">
        <ele>531</ele>
        <time>2020-10-02T07:57:11Z</time>
      </trkpt>
      <trkpt lat="43.65103" lon="6.833">
        <ele>527</ele>
        <time>2020-10-02T07:57:20Z</time>
      </trkpt>
      <trkpt lat="43.65061" lon="6.83246">
        <ele>519</ele>
        <time>2020-10-02T07:57:33Z</time>
      </trkpt>
      <trkpt lat="43.65048" lon="6.83098">
        <ele>511</ele>
        <time>2020-10-02T07:57:58Z</time>
      </trkpt>
      <trkpt lat="43.65077" lon="6.83063">
        <ele>508</ele>
        <time>2020-10-02T07:58:07Z</time>
      </trkpt>
      <trkpt lat="43.65092" lon="6.83019">
        <ele>504</ele>
        <time>2020-10-02T07:58:15Z</time>
      </trkpt>
      <trkpt lat="43.6504" lon="6.8295">
        <ele>499</ele>
        <time>2020-10-02T07:58:32Z</time>
      </trkpt>
      <trkpt lat="43.65048" lon="6.82878">
        <ele>490</ele>
        <time>2020-10-02T07:58:44Z</time>
      </trkpt>
      <trkpt lat="43.65001" lon="6.82835">
        <ele>485</ele>
        <time>2020-10-02T07:58:58Z</time>
      </trkpt>
      <trkpt lat="43.64957" lon="6.82784">
        <ele>479</ele>
        <time>2020-10-02T07:59:11Z</time>
      </trkpt>
      <trkpt lat="43.64975" lon="6.82741">
        <ele>474</ele>
        <time>2020-10-02T07:59:19Z</time>
      </trkpt>
      <trkpt lat="43.64971" lon="6.82711">
        <ele>471</ele>
        <time>2020-10-02T07:59:25Z</time>
      </trkpt>
      <trkpt lat="43.64949" lon="6.827">
        <ele>469</ele>
        <time>2020-10-02T07:59:30Z</time>
      </trkpt>
      <trkpt lat="43.64924" lon="6.82633">
        <ele>461</ele>
        <time>2020-10-02T07:59:43Z</time>
      </trkpt>
      <trkpt lat="43.64905" lon="6.82595">
        <ele>457</ele>
        <time>2020-10-02T07:59:51Z</time>
      </trkpt>
      <trkpt lat="43.64879" lon="6.8257">
        <ele>453</ele>
        <time>2020-10-02T07:59:58Z</time>
      </trkpt>
      <trkpt lat="43.6488" lon="6.82502">
        <ele>451</ele>
        <time>2020-10-02T08:00:10Z</time>
      </trkpt>
      <trkpt lat="43.64867" lon="6.82457">
        <ele>450</ele>
        <time>2020-10-02T08:00:18Z</time>
      </trkpt>
      <trkpt lat="43.64839" lon="6.82406">
        <ele>449</ele>
        <time>2020-10-02T08:00:29Z</time>
      </trkpt>
      <trkpt lat="43.64807" lon="6.82369">
        <ele>448</ele>
        <time>2020-10-02T08:00:38Z</time>
      </trkpt>
      <trkpt lat="43.64746" lon="6.82406">
        <ele>445</ele>
        <time>2020-10-02T08:00:54Z</time>
      </trkpt>
      <trkpt lat="43.64723" lon="6.82298">
        <ele>446</ele>
        <time>2020-10-02T08:01:13Z</time>
      </trkpt>
      <trkpt lat="43.64673" lon="6.82134">
        <ele>449</ele>
        <time>2020-10-02T08:01:43Z</time>
      </trkpt>
      <trkpt lat="43.64588" lon="6.82212">
        <ele>443</ele>
        <time>2020-10-02T08:02:07Z</time>
      </trkpt>
      <trkpt lat="43.6451" lon="6.82207">
        <ele>440</ele>
        <time>2020-10-02T08:02:25Z</time>
      </trkpt>
      <trkpt lat="43.64412" lon="6.82221">
        <ele>438</ele>
        <time>2020-10-02T08:02:48Z</time>
      </trkpt>
      <trkpt lat="43.64295" lon="6.82201">
        <ele>445</ele>
        <time>2020-10-02T08:03:16Z</time>
      </trkpt>
      <trkpt lat="43.6423" lon="6.82209">
        <ele>440</ele>
        <time>2020-10-02T08:03:31Z</time>
      </trkpt>
      <trkpt lat="43.64144" lon="6.82135">
        <ele>448</ele>
        <time>2020-10-02T08:03:54Z</time>
      </trkpt>
      <trkpt lat="43.6411" lon="6.82052">
        <ele>457</ele>
        <time>2020-10-02T08:04:11Z</time>
      </trkpt>
      <trkpt lat="43.64087" lon="6.81924">
        <ele>460</ele>
        <time>2020-10-02T08:04:33Z</time>
      </trkpt>
      <trkpt lat="43.64081" lon="6.81734">
        <ele>450</ele>
        <time>2020-10-02T08:05:05Z</time>
      </trkpt>
      <trkpt lat="43.64089" lon="6.81608">
        <ele>446</ele>
        <time>2020-10-02T08:05:26Z</time>
      </trkpt>
      <trkpt lat="43.64037" lon="6.81533">
        <ele>434</ele>
        <time>2020-10-02T08:05:44Z</time>
      </trkpt>
      <trkpt lat="43.64027" lon="6.81363">
        <ele>426</ele>
        <time>2020-10-02T08:06:13Z</time>
      </trkpt>
      <trkpt lat="43.64061" lon="6.81264">
        <ele>428</ele>
        <time>2020-10-02T08:06:31Z</time>
      </trkpt>
      <trkpt lat="43.63894" lon="6.81543">
        <ele>407</ele>
        <time>2020-10-02T08:07:32Z</time>
      </trkpt>
      <trkpt lat="43.63877" lon="6.81596">
        <ele>403</ele>
        <time>2020-10-02T08:07:42Z</time>
      </trkpt>
      <trkpt lat="43.63884" lon="6.81647">
        <ele>399</ele>
        <time>2020-10-02T08:07:51Z</time>
      </trkpt>
      <trkpt lat="43.63849" lon="6.817">
        <ele>389</ele>
        <time>2020-10-02T08:08:03Z</time>
      </trkpt>
      <trkpt lat="43.63838" lon="6.81742">
        <ele>380</ele>
        <time>2020-10-02T08:08:11Z</time>
      </trkpt>
      <trkpt lat="43.63856" lon="6.81886">
        <ele>366</ele>
        <time>2020-10-02T08:08:35Z</time>
      </trkpt>
      <trkpt lat="43.63881" lon="6.81989">
        <ele>363</ele>
        <time>2020-10-02T08:08:54Z</time>
      </trkpt>
      <trkpt lat="43.6386" lon="6.82066">
        <ele>340</ele>
        <time>2020-10-02T08:09:08Z</time>
      </trkpt>
      <trkpt lat="43.63899" lon="6.82182">
        <ele>349</ele>
        <time>2020-10-02T08:09:29Z</time>
      </trkpt>
      <trkpt lat="43.63959" lon="6.82272">
        <ele>364</ele>
        <time>2020-10-02T08:09:50Z</time>
      </trkpt>
      <trkpt lat="43.63878" lon="6.82285">
        <ele>354</ele>
        <time>2020-10-02T08:10:09Z</time>
      </trkpt>
      <trkpt lat="43.63834" lon="6.82273">
        <ele>345</ele>
        <time>2020-10-02T08:10:19Z</time>
      </trkpt>
      <trkpt lat="43.63732" lon="6.82232">
        <ele>346</ele>
        <time>2020-10-02T08:10:44Z</time>
      </trkpt>
      <trkpt lat="43.63681" lon="6.82248">
        <ele>352</ele>
        <time>2020-10-02T08:10:56Z</time>
      </trkpt>
      <trkpt lat="43.63646" lon="6.82323">
        <ele>365</ele>
        <time>2020-10-02T08:11:12Z</time>
      </trkpt>
      <trkpt lat="43.63605" lon="6.82323">
        <ele>362</ele>
        <time>2020-10-02T08:11:21Z</time>
      </trkpt>
      <trkpt lat="43.63565" lon="6.8235">
        <ele>361</ele>
        <time>2020-10-02T08:11:32Z</time>
      </trkpt>
      <trkpt lat="43.63526" lon="6.82392">
        <ele>359</ele>
        <time>2020-10-02T08:11:43Z</time>
      </trkpt>
      <trkpt lat="43.63466" lon="6.82483">
        <ele>365</ele>
        <time>2020-10-02T08:12:04Z</time>
      </trkpt>
      <trkpt lat="43.63446" lon="6.82606">
        <ele>372</ele>
        <time>2020-10-02T08:12:25Z</time>
      </trkpt>
      <trkpt lat="43.63457" lon="6.82701">
        <ele>378</ele>
        <time>2020-10-02T08:12:41Z</time>
      </trkpt>
      <trkpt lat="43.63451" lon="6.8274">
        <ele>379</ele>
        <time>2020-10-02T08:12:48Z</time>
      </trkpt>
      <trkpt lat="43.63431" lon="6.82729">
        <ele>376</ele>
        <time>2020-10-02T08:12:53Z</time>
      </trkpt>
      <trkpt lat="43.63348" lon="6.82822">
        <ele>378</ele>
        <time>2020-10-02T08:13:18Z</time>
      </trkpt>
      <trkpt lat="43.63286" lon="6.82941">
        <ele>380</ele>
        <time>2020-10-02T08:13:43Z</time>
      </trkpt>
      <trkpt lat="43.63275" lon="6.83006">
        <ele>382</ele>
        <time>2020-10-02T08:13:54Z</time>
      </trkpt>
      <trkpt lat="43.63256" lon="6.83002">
        <ele>382</ele>
        <time>2020-10-02T08:13:59Z</time>
      </trkpt>
      <trkpt lat="43.63191" lon="6.8303">
        <ele>385</ele>
        <time>2020-10-02T08:14:15Z</time>
      </trkpt>
      <trkpt lat="43.63108" lon="6.83112">
        <ele>375</ele>
        <time>2020-10-02T08:14:38Z</time>
      </trkpt>
      <trkpt lat="43.63046" lon="6.83058">
        <ele>368</ele>
        <time>2020-10-02T08:14:56Z</time>
      </trkpt>
      <trkpt lat="43.62946" lon="6.82904">
        <ele>346</ele>
        <time>2020-10-02T08:15:31Z</time>
      </trkpt>
      <trkpt lat="43.62956" lon="6.82758">
        <ele>349</ele>
        <time>2020-10-02T08:15:55Z</time>
      </trkpt>
      <trkpt lat="43.62931" lon="6.82706">
        <ele>335</ele>
        <time>2020-10-02T08:16:06Z</time>
      </trkpt>
      <trkpt lat="43.62913" lon="6.82733">
        <ele>331</ele>
        <time>2020-10-02T08:16:12Z</time>
      </trkpt>
      <trkpt lat="43.62888" lon="6.82729">
        <ele>318</ele>
        <time>2020-10-02T08:16:18Z</time>
      </trkpt>
      <trkpt lat="43.62882" lon="6.82762">
        <ele>318</ele>
        <time>2020-10-02T08:16:24Z</time>
      </trkpt>
      <trkpt lat="43.62854" lon="6.82761">
        <ele>304</ele>
        <time>2020-10-02T08:16:30Z</time>
      </trkpt>
      <trkpt lat="43.6284" lon="6.8279">
        <ele>297</ele>
        <time>2020-10-02T08:16:36Z</time>
      </trkpt>
      <trkpt lat="43.62841" lon="6.82853">
        <ele>298</ele>
        <time>2020-10-02T08:16:47Z</time>
      </trkpt>
      <trkpt lat="43.62818" lon="6.82883">
        <ele>286</ele>
        <time>2020-10-02T08:16:54Z</time>
      </trkpt>
      <trkpt lat="43.62825" lon="6.83065">
        <ele>275</ele>
        <time>2020-10-02T08:17:25Z</time>
      </trkpt>
      <trkpt lat="43.62789" lon="6.83068">
        <ele>260</ele>
        <time>2020-10-02T08:17:33Z</time>
      </trkpt>
      <trkpt lat="43.62775" lon="6.83159">
        <ele>245</ele>
        <time>2020-10-02T08:17:49Z</time>
      </trkpt>
      <trkpt lat="43.62781" lon="6.8334">
        <ele>233</ele>
        <time>2020-10-02T08:18:20Z</time>
      </trkpt>
      <trkpt lat="43.62814" lon="6.83407">
        <ele>231</ele>
        <time>2020-10-02T08:18:33Z</time>
      </trkpt>
      <trkpt lat="43.63049" lon="6.83642">
        <ele>236</ele>
        <time>2020-10-02T08:19:41Z</time>
      </trkpt>
      <trkpt lat="43.6314" lon="6.83765">
        <ele>233</ele>
        <time>2020-10-02T08:20:11Z</time>
      </trkpt>
      <trkpt lat="43.63195" lon="6.83826">
        <ele>235</ele>
        <time>2020-10-02T08:20:27Z</time>
      </trkpt>
      <trkpt lat="43.63284" lon="6.83985">
        <ele>239</ele>
        <time>2020-10-02T08:21:01Z</time>
      </trkpt>
      <trkpt lat="43.63258" lon="6.84071">
        <ele>231</ele>
        <time>2020-10-02T08:21:17Z</time>
      </trkpt>
      <trkpt lat="43.6331" lon="6.84165">
        <ele>241</ele>
        <time>2020-10-02T08:21:37Z</time>
      </trkpt>
      <trkpt lat="43.63179" lon="6.84191">
        <ele>234</ele>
        <time>2020-10-02T08:22:08Z</time>
      </trkpt>
      <trkpt lat="43.63122" lon="6.84237">
        <ele>240</ele>
        <time>2020-10-02T08:22:23Z</time>
      </trkpt>
      <trkpt lat="43.63088" lon="6.84191">
        <ele>231</ele>
        <time>2020-10-02T08:22:35Z</time>
      </trkpt>
      <trkpt lat="43.63077" lon="6.84295">
        <ele>243</ele>
        <time>2020-10-02T08:22:52Z</time>
      </trkpt>
      <trkpt lat="43.63041" lon="6.84382">
        <ele>243</ele>
        <time>2020-10-02T08:23:09Z</time>
      </trkpt>
      <trkpt lat="43.63175" lon="6.84518">
        <ele>235</ele>
        <time>2020-10-02T08:23:48Z</time>
      </trkpt>
      <trkpt lat="43.63246" lon="6.84626">
        <ele>236</ele>
        <time>2020-10-02T08:24:13Z</time>
      </trkpt>
      <trkpt lat="43.63186" lon="6.84738">
        <ele>232</ele>
        <time>2020-10-02T08:24:36Z</time>
      </trkpt>
      <trkpt lat="43.63303" lon="6.84987">
        <ele>236</ele>
        <time>2020-10-02T08:25:27Z</time>
      </trkpt>
      <trkpt lat="43.63233" lon="6.84987">
        <ele>232</ele>
        <time>2020-10-02T08:25:43Z</time>
      </trkpt>
      <trkpt lat="43.63115" lon="6.84854">
        <ele>224</ele>
        <time>2020-10-02T08:26:18Z</time>
      </trkpt>
      <trkpt lat="43.63021" lon="6.84835">
        <ele>215</ele>
        <time>2020-10-02T08:26:41Z</time>
      </trkpt>
      <trkpt lat="43.62888" lon="6.84958">
        <ele>218</ele>
        <time>2020-10-02T08:27:18Z</time>
      </trkpt>
      <trkpt lat="43.62815" lon="6.85164">
        <ele>232</ele>
        <time>2020-10-02T08:27:57Z</time>
      </trkpt>
      <trkpt lat="43.62802" lon="6.85315">
        <ele>245</ele>
        <time>2020-10-02T08:28:22Z</time>
      </trkpt>
      <trkpt lat="43.62714" lon="6.85403">
        <ele>241</ele>
        <time>2020-10-02T08:28:48Z</time>
      </trkpt>
      <trkpt lat="43.62636" lon="6.85502">
        <ele>240</ele>
        <time>2020-10-02T08:29:13Z</time>
      </trkpt>
      <trkpt lat="43.62581" lon="6.85397">
        <ele>220</ele>
        <time>2020-10-02T08:29:34Z</time>
      </trkpt>
      <trkpt lat="43.62555" lon="6.85325">
        <ele>205</ele>
        <time>2020-10-02T08:29:48Z</time>
      </trkpt>
      <trkpt lat="43.62521" lon="6.85289">
        <ele>192</ele>
        <time>2020-10-02T08:29:58Z</time>
      </trkpt>
      <trkpt lat="43.62471" lon="6.85354">
        <ele>193</ele>
        <time>2020-10-02T08:30:14Z</time>
      </trkpt>
      <trkpt lat="43.62453" lon="6.85407">
        <ele>194</ele>
        <time>2020-10-02T08:30:24Z</time>
      </trkpt>
      <trkpt lat="43.62423" lon="6.85456">
        <ele>190</ele>
        <time>2020-10-02T08:30:35Z</time>
      </trkpt>
      <trkpt lat="43.62397" lon="6.8549">
        <ele>194</ele>
        <time>2020-10-02T08:30:43Z</time>
      </trkpt>
      <trkpt lat="43.62375" lon="6.85509">
        <ele>200</ele>
        <time>2020-10-02T08:30:49Z</time>
      </trkpt>
      <trkpt lat="43.62356" lon="6.85392">
        <ele>181</ele>
        <time>2020-10-02T08:31:10Z</time>
      </trkpt>
      <trkpt lat="43.62338" lon="6.85361">
        <ele>174</ele>
        <time>2020-10-02T08:31:16Z</time>
      </trkpt>
      <trkpt lat="43.62268" lon="6.85303">
        <ele>172</ele>
        <time>2020-10-02T08:31:35Z</time>
      </trkpt>
      <trkpt lat="43.62228" lon="6.85282">
        <ele>171</ele>
        <time>2020-10-02T08:31:45Z</time>
      </trkpt>
      <trkpt lat="43.62182" lon="6.85216">
        <ele>163</ele>
        <time>2020-10-02T08:32:01Z</time>
      </trkpt>
      <trkpt lat="43.62158" lon="6.852">
        <ele>159</ele>
        <time>2020-10-02T08:32:07Z</time>
      </trkpt>
      <trkpt lat="43.62113" lon="6.85245">
        <ele>163</ele>
        <time>2020-10-02T08:32:20Z</time>
      </trkpt>
      <trkpt lat="43.62056" lon="6.85238">
        <ele>166</ele>
        <time>2020-10-02T08:32:33Z</time>
      </trkpt>
      <trkpt lat="43.62027" lon="6.85213">
        <ele>167</ele>
        <time>2020-10-02T08:32:41Z</time>
      </trkpt>
      <trkpt lat="43.61998" lon="6.85147">
        <ele>156</ele>
        <time>2020-10-02T08:32:54Z</time>
      </trkpt>
      <trkpt lat="43.61904" lon="6.85206">
        <ele>193</ele>
        <time>2020-10-02T08:33:19Z</time>
      </trkpt>
      <trkpt lat="43.61852" lon="6.85225">
        <ele>204</ele>
        <time>2020-10-02T08:33:31Z</time>
      </trkpt>
      <trkpt lat="43.61839" lon="6.85249">
        <ele>213</ele>
        <time>2020-10-02T08:33:36Z</time>
      </trkpt>
      <trkpt lat="43.61786" lon="6.85239">
        <ele>215</ele>
        <time>2020-10-02T08:33:49Z</time>
      </trkpt>
      <trkpt lat="43.61765" lon="6.85288">
        <ele>228</ele>
        <time>2020-10-02T08:33:58Z</time>
      </trkpt>
      <trkpt lat="43.61683" lon="6.85377">
        <ele>247</ele>
        <time>2020-10-02T08:34:23Z</time>
      </trkpt>
      <trkpt lat="43.61644" lon="6.85428">
        <ele>244</ele>
        <time>2020-10-02T08:34:35Z</time>
      </trkpt>
      <trkpt lat="43.6163" lon="6.85554">
        <ele>249</ele>
        <time>2020-10-02T08:34:57Z</time>
      </trkpt>
      <trkpt lat="43.61708" lon="6.8566">
        <ele>252</ele>
        <time>2020-10-02T08:35:22Z</time>
      </trkpt>
      <trkpt lat="43.61744" lon="6.8569">
        <ele>252</ele>
        <time>2020-10-02T08:35:32Z</time>
      </trkpt>
      <trkpt lat="43.61812" lon="6.85681">
        <ele>252</ele>
        <time>2020-10-02T08:35:48Z</time>
      </trkpt>
      <trkpt lat="43.61845" lon="6.85698">
        <ele>247</ele>
        <time>2020-10-02T08:35:56Z</time>
      </trkpt>
      <trkpt lat="43.61964" lon="6.85709">
        <ele>245</ele>
        <time>2020-10-02T08:36:24Z</time>
      </trkpt>
      <trkpt lat="43.61934" lon="6.85859">
        <ele>230</ele>
        <time>2020-10-02T08:36:50Z</time>
      </trkpt>
      <trkpt lat="43.61943" lon="6.85881">
        <ele>228</ele>
        <time>2020-10-02T08:36:55Z</time>
      </trkpt>
      <trkpt lat="43.61966" lon="6.85898">
        <ele>226</ele>
        <time>2020-10-02T08:37:01Z</time>
      </trkpt>
      <trkpt lat="43.61983" lon="6.86153">
        <ele>224</ele>
        <time>2020-10-02T08:37:44Z</time>
      </trkpt>
      <trkpt lat="43.6196" lon="6.86215">
        <ele>226</ele>
        <time>2020-10-02T08:37:56Z</time>
      </trkpt>
      <trkpt lat="43.61948" lon="6.86237">
        <ele>226</ele>
        <time>2020-10-02T08:38:01Z</time>
      </trkpt>
      <trkpt lat="43.61955" lon="6.86258">
        <ele>229</ele>
        <time>2020-10-02T08:38:04Z</time>
      </trkpt>
      <trkpt lat="43.61957" lon="6.86285">
        <ele>233</ele>
        <time>2020-10-02T08:38:09Z</time>
      </trkpt>
      <trkpt lat="43.61938" lon="6.86354">
        <ele>237</ele>
        <time>2020-10-02T08:38:21Z</time>
      </trkpt>
      <trkpt lat="43.61917" lon="6.86392">
        <ele>238</ele>
        <time>2020-10-02T08:38:30Z</time>
      </trkpt>
      <trkpt lat="43.61895" lon="6.86504">
        <ele>242</ele>
        <time>2020-10-02T08:38:49Z</time>
      </trkpt>
      <trkpt lat="43.61933" lon="6.86578">
        <ele>241</ele>
        <time>2020-10-02T08:39:05Z</time>
      </trkpt>
      <trkpt lat="43.61976" lon="6.86563">
        <ele>242</ele>
        <time>2020-10-02T08:39:15Z</time>
      </trkpt>
      <trkpt lat="43.62011" lon="6.86606">
        <ele>242</ele>
        <time>2020-10-02T08:39:26Z</time>
      </trkpt>
      <trkpt lat="43.61882" lon="6.86977">
        <ele>256</ele>
        <time>2020-10-02T08:40:35Z</time>
      </trkpt>
      <trkpt lat="43.61893" lon="6.87071">
        <ele>260</ele>
        <time>2020-10-02T08:40:52Z</time>
      </trkpt>
      <trkpt lat="43.61941" lon="6.87094">
        <ele>260</ele>
        <time>2020-10-02T08:41:03Z</time>
      </trkpt>
      <trkpt lat="43.62031" lon="6.8708">
        <ele>262</ele>
        <time>2020-10-02T08:41:25Z</time>
      </trkpt>
      <trkpt lat="43.62039" lon="6.87112">
        <ele>259</ele>
        <time>2020-10-02T08:41:30Z</time>
      </trkpt>
      <trkpt lat="43.62075" lon="6.87129">
        <ele>257</ele>
        <time>2020-10-02T08:41:39Z</time>
      </trkpt>
      <trkpt lat="43.62093" lon="6.87177">
        <ele>257</ele>
        <time>2020-10-02T08:41:48Z</time>
      </trkpt>
      <trkpt lat="43.62073" lon="6.87207">
        <ele>254</ele>
        <time>2020-10-02T08:41:55Z</time>
      </trkpt>
      <trkpt lat="43.62069" lon="6.87267">
        <ele>251</ele>
        <time>2020-10-02T08:42:05Z</time>
      </trkpt>
      <trkpt lat="43.62089" lon="6.87347">
        <ele>250</ele>
        <time>2020-10-02T08:42:20Z</time>
      </trkpt>
      <trkpt lat="43.62126" lon="6.87412">
        <ele>251</ele>
        <time>2020-10-02T08:42:34Z</time>
      </trkpt>
      <trkpt lat="43.62182" lon="6.87469">
        <ele>255</ele>
        <time>2020-10-02T08:42:50Z</time>
      </trkpt>
      <trkpt lat="43.62229" lon="6.87501">
        <ele>257</ele>
        <time>2020-10-02T08:43:02Z</time>
      </trkpt>
      <trkpt lat="43.62326" lon="6.87502">
        <ele>259</ele>
        <time>2020-10-02T08:43:25Z</time>
      </trkpt>
      <trkpt lat="43.62388" lon="6.87542">
        <ele>263</ele>
        <time>2020-10-02T08:43:41Z</time>
      </trkpt>
      <trkpt lat="43.62442" lon="6.87536">
        <ele>263</ele>
        <time>2020-10-02T08:43:53Z</time>
      </trkpt>
      <trkpt lat="43.62445" lon="6.87577">
        <ele>266</ele>
        <time>2020-10-02T08:44:00Z</time>
      </trkpt>
      <trkpt lat="43.62501" lon="6.87598">
        <ele>265</ele>
        <time>2020-10-02T08:44:14Z</time>
      </trkpt>
      <trkpt lat="43.62575" lon="6.87687">
        <ele>264</ele>
        <time>2020-10-02T08:44:37Z</time>
      </trkpt>
      <trkpt lat="43.62456" lon="6.88209">
        <ele>269</ele>
        <time>2020-10-02T08:46:09Z</time>
      </trkpt>
      <trkpt lat="43.62508" lon="6.88647">
        <ele>261</ele>
        <time>2020-10-02T08:47:24Z</time>
      </trkpt>
      <trkpt lat="43.62441" lon="6.8876">
        <ele>263</ele>
        <time>2020-10-02T08:47:49Z</time>
      </trkpt>
      <trkpt lat="43.62427" lon="6.88857">
        <ele>266</ele>
        <time>2020-10-02T08:48:06Z</time>
      </trkpt>
      <trkpt lat="43.62362" lon="6.88955">
        <ele>266</ele>
        <time>2020-10-02T08:48:28Z</time>
      </trkpt>
      <trkpt lat="43.62348" lon="6.89011">
        <ele>264</ele>
        <time>2020-10-02T08:48:38Z</time>
      </trkpt>
      <trkpt lat="43.62322" lon="6.89038">
        <ele>264</ele>
        <time>2020-10-02T08:48:46Z</time>
      </trkpt>
      <trkpt lat="43.62266" lon="6.89248">
        <ele>247</ele>
        <time>2020-10-02T08:49:24Z</time>
      </trkpt>
      <trkpt lat="43.62218" lon="6.89281">
        <ele>245</ele>
        <time>2020-10-02T08:49:36Z</time>
      </trkpt>
      <trkpt lat="43.62184" lon="6.89366">
        <ele>230</ele>
        <time>2020-10-02T08:49:53Z</time>
      </trkpt>
      <trkpt lat="43.62086" lon="6.89414">
        <ele>222</ele>
        <time>2020-10-02T08:50:17Z</time>
      </trkpt>
      <trkpt lat="43.62022" lon="6.89375">
        <ele>224</ele>
        <time>2020-10-02T08:50:33Z</time>
      </trkpt>
      <trkpt lat="43.61989" lon="6.89388">
        <ele>218</ele>
        <time>2020-10-02T08:50:41Z</time>
      </trkpt>
      <trkpt lat="43.6197" lon="6.89371">
        <ele>216</ele>
        <time>2020-10-02T08:50:47Z</time>
      </trkpt>
      <trkpt lat="43.61951" lon="6.89381">
        <ele>212</ele>
        <time>2020-10-02T08:50:51Z</time>
      </trkpt>
      <trkpt lat="43.61931" lon="6.89433">
        <ele>205</ele>
        <time>2020-10-02T08:51:01Z</time>
      </trkpt>
      <trkpt lat="43.61887" lon="6.89447">
        <ele>197</ele>
        <time>2020-10-02T08:51:12Z</time>
      </trkpt>
      <trkpt lat="43.61862" lon="6.89462">
        <ele>192</ele>
        <time>2020-10-02T08:51:18Z</time>
      </trkpt>
      <trkpt lat="43.61817" lon="6.89475">
        <ele>183</ele>
        <time>2020-10-02T08:51:29Z</time>
      </trkpt>
      <trkpt lat="43.61797" lon="6.89478">
        <ele>178</ele>
        <time>2020-10-02T08:51:34Z</time>
      </trkpt>
      <trkpt lat="43.61789" lon="6.89447">
        <ele>181</ele>
        <time>2020-10-02T08:51:39Z</time>
      </trkpt>
      <trkpt lat="43.6173" lon="6.89436">
        <ele>168</ele>
        <time>2020-10-02T08:51:53Z</time>
      </trkpt>
      <trkpt lat="43.61714" lon="6.89452">
        <ele>160</ele>
        <time>2020-10-02T08:51:58Z</time>
      </trkpt>
      <trkpt lat="43.61702" lon="6.8942">
        <ele>161</ele>
        <time>2020-10-02T08:52:04Z</time>
      </trkpt>
      <trkpt lat="43.61682" lon="6.89436">
        <ele>152</ele>
        <time>2020-10-02T08:52:09Z</time>
      </trkpt>
      <trkpt lat="43.61678" lon="6.89386">
        <ele>160</ele>
        <time>2020-10-02T08:52:18Z</time>
      </trkpt>
      <trkpt lat="43.6164" lon="6.89367">
        <ele>156</ele>
        <time>2020-10-02T08:52:27Z</time>
      </trkpt>
      <trkpt lat="43.61599" lon="6.89389">
        <ele>144</ele>
        <time>2020-10-02T08:52:37Z</time>
      </trkpt>
      <trkpt lat="43.6157" lon="6.89414">
        <ele>136</ele>
        <time>2020-10-02T08:52:45Z</time>
      </trkpt>
      <trkpt lat="43.61532" lon="6.89423">
        <ele>130</ele>
        <time>2020-10-02T08:52:54Z</time>
      </trkpt>
      <trkpt lat="43.61484" lon="6.8945">
        <ele>119</ele>
        <time>2020-10-02T08:53:06Z</time>
      </trkpt>
      <trkpt lat="43.61456" lon="6.8945">
        <ele>116</ele>
        <time>2020-10-02T08:53:13Z</time>
      </trkpt>
      <trkpt lat="43.61402" lon="6.89441">
        <ele>108</ele>
        <time>2020-10-02T08:53:26Z</time>
      </trkpt>
      <trkpt lat="43.6127" lon="6.89399">
        <ele>67</ele>
        <time>2020-10-02T08:53:57Z</time>
      </trkpt>
      <trkpt lat="43.61264" lon="6.89365">
        <ele>61</ele>
        <time>2020-10-02T08:54:03Z</time>
      </trkpt>
      <trkpt lat="43.61278" lon="6.89309">
        <ele>58</ele>
        <time>2020-10-02T08:54:13Z</time>
      </trkpt>
      <trkpt lat="43.61254" lon="6.89311">
        <ele>50</ele>
        <time>2020-10-02T08:54:19Z</time>
      </trkpt>
      <trkpt lat="43.61274" lon="6.89268">
        <ele>49</ele>
        <time>2020-10-02T08:54:28Z</time>
      </trkpt>
      <trkpt lat="43.61229" lon="6.89272">
        <ele>40</ele>
        <time>2020-10-02T08:54:38Z</time>
      </trkpt>
      <trkpt lat="43.61205" lon="6.8924">
        <ele>36</ele>
        <time>2020-10-02T08:54:46Z</time>
      </trkpt>
      <trkpt lat="43.61212" lon="6.89308">
        <ele>40</ele>
        <time>2020-10-02T08:54:57Z</time>
      </trkpt>
      <trkpt lat="43.61208" lon="6.89375">
        <ele>43</ele>
        <time>2020-10-02T08:55:09Z</time>
      </trkpt>
      <trkpt lat="43.61171" lon="6.89454">
        <ele>33</ele>
        <time>2020-10-02T08:55:25Z</time>
      </trkpt>
      <trkpt lat="43.60949" lon="6.89627">
        <ele>32</ele>
        <time>2020-10-02T08:56:24Z</time>
      </trkpt>
      <trkpt lat="43.60899" lon="6.8976">
        <ele>34</ele>
        <time>2020-10-02T08:56:50Z</time>
      </trkpt>
      <trkpt lat="43.60809" lon="6.89856">
        <ele>29</ele>
        <time>2020-10-02T08:57:16Z</time>
      </trkpt>
      <trkpt lat="43.60663" lon="6.90133">
        <ele>24</ele>
        <time>2020-10-02T08:58:14Z</time>
      </trkpt>
      <trkpt lat="43.60664" lon="6.9028">
        <ele>27</ele>
        <time>2020-10-02T08:58:39Z</time>
      </trkpt>
      <trkpt lat="43.60621" lon="6.9039">
        <ele>41</ele>
        <time>2020-10-02T08:59:00Z</time>
      </trkpt>
      <trkpt lat="43.60489" lon="6.90653">
        <ele>48</ele>
        <time>2020-10-02T08:59:54Z</time>
      </trkpt>
      <trkpt lat="43.60407" lon="6.90922">
        <ele>52</ele>
        <time>2020-10-02T09:00:44Z</time>
      </trkpt>
      <trkpt lat="43.60417" lon="6.91204">
        <ele>35</ele>
        <time>2020-10-02T09:01:31Z</time>
      </trkpt>
      <trkpt lat="43.60485" lon="6.9126">
        <ele>37</ele>
        <time>2020-10-02T09:01:50Z</time>
      </trkpt>
      <trkpt lat="43.60544" lon="6.91301">
        <ele>38</ele>
        <time>2020-10-02T09:02:05Z</time>
      </trkpt>
      <trkpt lat="43.60638" lon="6.91291">
        <ele>44</ele>
        <time>2020-10-02T09:02:27Z</time>
      </trkpt>
      <trkpt lat="43.60713" lon="6.9131">
        <ele>36</ele>
        <time>2020-10-02T09:02:45Z</time>
      </trkpt>
      <trkpt lat="43.60774" lon="6.91352">
        <ele>32</ele>
        <time>2020-10-02T09:03:01Z</time>
      </trkpt>
      <trkpt lat="43.60818" lon="6.91455">
        <ele>32</ele>
        <time>2020-10-02T09:03:21Z</time>
      </trkpt>
      <trkpt lat="43.60793" lon="6.91535">
        <ele>33</ele>
        <time>2020-10-02T09:03:36Z</time>
      </trkpt>
      <trkpt lat="43.60706" lon="6.91651">
        <ele>34</ele>
        <time>2020-10-02T09:04:04Z</time>
      </trkpt>
      <trkpt lat="43.60724" lon="6.91653">
        <ele>35</ele>
        <time>2020-10-02T09:04:08Z</time>
      </trkpt>
      <trkpt lat="43.6071" lon="6.91683">
        <ele>36</ele>
        <time>2020-10-02T09:04:14Z</time>
      </trkpt>
      <trkpt lat="43.60707" lon="6.91709">
        <ele>39</ele>
        <time>2020-10-02T09:04:19Z</time>
      </trkpt>
      <trkpt lat="43.60767" lon="6.91776">
        <ele>48</ele>
        <time>2020-10-02T09:04:37Z</time>
      </trkpt>
      <trkpt lat="43.60823" lon="6.91782">
        <ele>50</ele>
        <time>2020-10-02T09:04:50Z</time>
      </trkpt>
      <trkpt lat="43.60886" lon="6.91871">
        <ele>59</ele>
        <time>2020-10-02T09:05:11Z</time>
      </trkpt>
      <trkpt lat="43.60988" lon="6.9184">
        <ele>61</ele>
        <time>2020-10-02T09:05:35Z</time>
      </trkpt>
      <trkpt lat="43.61052" lon="6.91862">
        <ele>65</ele>
        <time>2020-10-02T09:05:51Z</time>
      </trkpt>
      <trkpt lat="43.61103" lon="6.91955">
        <ele>73</ele>
        <time>2020-10-02T09:06:11Z</time>
      </trkpt>
      <trkpt lat="43.6118" lon="6.91971">
        <ele>73</ele>
        <time>2020-10-02T09:06:29Z</time>
      </trkpt>
      <trkpt lat="43.61225" lon="6.91999">
        <ele>73</ele>
        <time>2020-10-02T09:06:40Z</time>
      </trkpt>
      <trkpt lat="43.61308" lon="6.92098">
        <ele>86</ele>
        <time>2020-10-02T09:07:06Z</time>
      </trkpt>
      <trkpt lat="43.61392" lon="6.92163">
        <ele>87</ele>
        <time>2020-10-02T09:07:28Z</time>
      </trkpt>
      <trkpt lat="43.61441" lon="6.92229">
        <ele>94</ele>
        <time>2020-10-02T09:07:44Z</time>
      </trkpt>
      <trkpt lat="43.61477" lon="6.92232">
        <ele>89</ele>
        <time>2020-10-02T09:07:53Z</time>
      </trkpt>
      <trkpt lat="43.61502" lon="6.92195">
        <ele>79</ele>
        <time>2020-10-02T09:08:01Z</time>
      </trkpt>
      <trkpt lat="43.61607" lon="6.92204">
        <ele>83</ele>
        <time>2020-10-02T09:08:26Z</time>
      </trkpt>
      <trkpt lat="43.61761" lon="6.92302">
        <ele>90</ele>
        <time>2020-10-02T09:09:06Z</time>
      </trkpt>
      <trkpt lat="43.61762" lon="6.92321">
        <ele>92</ele>
        <time>2020-10-02T09:09:09Z</time>
      </trkpt>
      <trkpt lat="43.61736" lon="6.92321">
        <ele>95</ele>
        <time>2020-10-02T09:09:15Z</time>
      </trkpt>
      <trkpt lat="43.61731" lon="6.92338">
        <ele>100</ele>
        <time>2020-10-02T09:09:18Z</time>
      </trkpt>
      <trkpt lat="43.61824" lon="6.92372">
        <ele>98</ele>
        <time>2020-10-02T09:09:40Z</time>
      </trkpt>
      <trkpt lat="43.61793" lon="6.92399">
        <ele>107</ele>
        <time>2020-10-02T09:09:49Z</time>
      </trkpt>
      <trkpt lat="43.61802" lon="6.92395">
        <ele>105</ele>
        <time>2020-10-02T09:09:51Z</time>
      </trkpt>
      <trkpt lat="43.61835" lon="6.92411">
        <ele>105</ele>
        <time>2020-10-02T09:09:59Z</time>
      </trkpt>
      <trkpt lat="43.61782" lon="6.92437">
        <ele>117</ele>
        <time>2020-10-02T09:10:12Z</time>
      </trkpt>
      <trkpt lat="43.61802" lon="6.92472">
        <ele>122</ele>
        <time>2020-10-02T09:10:20Z</time>
      </trkpt>
      <trkpt lat="43.61768" lon="6.92477">
        <ele>129</ele>
        <time>2020-10-02T09:10:28Z</time>
      </trkpt>
      <trkpt lat="43.61808" lon="6.9252">
        <ele>130</ele>
        <time>2020-10-02T09:10:40Z</time>
      </trkpt>
      <trkpt lat="43.61749" lon="6.92521">
        <ele>143</ele>
        <time>2020-10-02T09:10:54Z</time>
      </trkpt>
      <trkpt lat="43.61801" lon="6.926">
        <ele>144</ele>
        <time>2020-10-02T09:11:12Z</time>
      </trkpt>
      <trkpt lat="43.61816" lon="6.92656">
        <ele>149</ele>
        <time>2020-10-02T09:11:22Z</time>
      </trkpt>
      <trkpt lat="43.61816" lon="6.92715">
        <ele>154</ele>
        <time>2020-10-02T09:11:32Z</time>
      </trkpt>
      <trkpt lat="43.6179" lon="6.92749">
        <ele>160</ele>
        <time>2020-10-02T09:11:40Z</time>
      </trkpt>
      <trkpt lat="43.61748" lon="6.92822">
        <ele>165</ele>
        <time>2020-10-02T09:11:56Z</time>
      </trkpt>
      <trkpt lat="43.61705" lon="6.92921">
        <ele>170</ele>
        <time>2020-10-02T09:12:15Z</time>
      </trkpt>
      <trkpt lat="43.61752" lon="6.92968">
        <ele>172</ele>
        <time>2020-10-02T09:12:29Z</time>
      </trkpt>
      <trkpt lat="43.61803" lon="6.92967">
        <ele>171</ele>
        <time>2020-10-02T09:12:41Z</time>
      </trkpt>
      <trkpt lat="43.61845" lon="6.92984">
        <ele>171</ele>
        <time>2020-10-02T09:12:51Z</time>
      </trkpt>
      <trkpt lat="43.61936" lon="6.93092">
        <ele>171</ele>
        <time>2020-10-02T09:13:19Z</time>
      </trkpt>
      <trkpt lat="43.61998" lon="6.93219">
        <ele>168</ele>
        <time>2020-10-02T09:13:45Z</time>
      </trkpt>
      <trkpt lat="43.62027" lon="6.93296">
        <ele>166</ele>
        <time>2020-10-02T09:14:00Z</time>
      </trkpt>
      <trkpt lat="43.61989" lon="6.93369">
        <ele>163</ele>
        <time>2020-10-02T09:14:15Z</time>
      </trkpt>
      <trkpt lat="43.62009" lon="6.9343">
        <ele>163</ele>
        <time>2020-10-02T09:14:26Z</time>
      </trkpt>
      <trkpt lat="43.61961" lon="6.93557">
        <ele>151</ele>
        <time>2020-10-02T09:14:50Z</time>
      </trkpt>
      <trkpt lat="43.61969" lon="6.93596">
        <ele>150</ele>
        <time>2020-10-02T09:14:57Z</time>
      </trkpt>
      <trkpt lat="43.61986" lon="6.93636">
        <ele>153</ele>
        <time>2020-10-02T09:15:05Z</time>
      </trkpt>
      <trkpt lat="43.61956" lon="6.93706">
        <ele>149</ele>
        <time>2020-10-02T09:15:19Z</time>
      </trkpt>
      <trkpt lat="43.61937" lon="6.9371">
        <ele>149</ele>
        <time>2020-10-02T09:15:23Z</time>
      </trkpt>
      <trkpt lat="43.61906" lon="6.93757">
        <ele>148</ele>
        <time>2020-10-02T09:15:34Z</time>
      </trkpt>
      <trkpt lat="43.61866" lon="6.93766">
        <ele>141</ele>
        <time>2020-10-02T09:15:44Z</time>
      </trkpt>
      <trkpt lat="43.61849" lon="6.93807">
        <ele>137</ele>
        <time>2020-10-02T09:15:52Z</time>
      </trkpt>
      <trkpt lat="43.61842" lon="6.93842">
        <ele>135</ele>
        <time>2020-10-02T09:15:58Z</time>
      </trkpt>
      <trkpt lat="43.6182" lon="6.93854">
        <ele>130</ele>
        <time>2020-10-02T09:16:03Z</time>
      </trkpt>
      <trkpt lat="43.61791" lon="6.93835">
        <ele>125</ele>
        <time>2020-10-02T09:16:11Z</time>
      </trkpt>
      <trkpt lat="43.61781" lon="6.93848">
        <ele>121</ele>
        <time>2020-10-02T09:16:14Z</time>
      </trkpt>
      <trkpt lat="43.61768" lon="6.93858">
        <ele>116</ele>
        <time>2020-10-02T09:16:17Z</time>
      </trkpt>
      <trkpt lat="43.61771" lon="6.93887">
        <ele>114</ele>
        <time>2020-10-02T09:16:22Z</time>
      </trkpt>
      <trkpt lat="43.61778" lon="6.93898">
        <ele>114</ele>
        <time>2020-10-02T09:16:25Z</time>
      </trkpt>
      <trkpt lat="43.61765" lon="6.93933">
        <ele>109</ele>
        <time>2020-10-02T09:16:31Z</time>
      </trkpt>
      <trkpt lat="43.61769" lon="6.93951">
        <ele>109</ele>
        <time>2020-10-02T09:16:35Z</time>
      </trkpt>
      <trkpt lat="43.61792" lon="6.93967">
        <ele>112</ele>
        <time>2020-10-02T09:16:41Z</time>
      </trkpt>
      <trkpt lat="43.61808" lon="6.93973">
        <ele>114</ele>
        <time>2020-10-02T09:16:44Z</time>
      </trkpt>
      <trkpt lat="43.61824" lon="6.93991">
        <ele>113</ele>
        <time>2020-10-02T09:16:49Z</time>
      </trkpt>
      <trkpt lat="43.61835" lon="6.93989">
        <ele>115</ele>
        <time>2020-10-02T09:16:52Z</time>
      </trkpt>
      <trkpt lat="43.6184" lon="6.94001">
        <ele>114</ele>
        <time>2020-10-02T09:16:54Z</time>
      </trkpt>
      <trkpt lat="43.61837" lon="6.9403">
        <ele>116</ele>
        <time>2020-10-02T09:16:59Z</time>
      </trkpt>
      <trkpt lat="43.61809" lon="6.94033">
        <ele>115</ele>
        <time>2020-10-02T09:17:06Z</time>
      </trkpt>
      <trkpt lat="43.61781" lon="6.94022">
        <ele>112</ele>
        <time>2020-10-02T09:17:13Z</time>
      </trkpt>
      <trkpt lat="43.61716" lon="6.94014">
        <ele>107</ele>
        <time>2020-10-02T09:17:28Z</time>
      </trkpt>
      <trkpt lat="43.61695" lon="6.94025">
        <ele>108</ele>
        <time>2020-10-02T09:17:33Z</time>
      </trkpt>
      <trkpt lat="43.61679" lon="6.94041">
        <ele>109</ele>
        <time>2020-10-02T09:17:38Z</time>
      </trkpt>
      <trkpt lat="43.61642" lon="6.94055">
        <ele>108</ele>
        <time>2020-10-02T09:17:47Z</time>
      </trkpt>
      <trkpt lat="43.61604" lon="6.9408">
        <ele>108</ele>
        <time>2020-10-02T09:17:56Z</time>
      </trkpt>
      <trkpt lat="43.6158" lon="6.94118">
        <ele>107</ele>
        <time>2020-10-02T09:18:05Z</time>
      </trkpt>
      <trkpt lat="43.61591" lon="6.94133">
        <ele>109</ele>
        <time>2020-10-02T09:18:09Z</time>
      </trkpt>
      <trkpt lat="43.61603" lon="6.94159">
        <ele>113</ele>
        <time>2020-10-02T09:18:14Z</time>
      </trkpt>
      <trkpt lat="43.61631" lon="6.94132">
        <ele>117</ele>
        <time>2020-10-02T09:18:22Z</time>
      </trkpt>
      <trkpt lat="43.61645" lon="6.94178">
        <ele>123</ele>
        <time>2020-10-02T09:18:30Z</time>
      </trkpt>
      <trkpt lat="43.61662" lon="6.9415">
        <ele>126</ele>
        <time>2020-10-02T09:18:36Z</time>
      </trkpt>
      <trkpt lat="43.61711" lon="6.94143">
        <ele>133</ele>
        <time>2020-10-02T09:18:48Z</time>
      </trkpt>
      <trkpt lat="43.61727" lon="6.94164">
        <ele>140</ele>
        <time>2020-10-02T09:18:53Z</time>
      </trkpt>
      <trkpt lat="43.61751" lon="6.94169">
        <ele>145</ele>
        <time>2020-10-02T09:18:59Z</time>
      </trkpt>
      <trkpt lat="43.61772" lon="6.94215">
        <ele>147</ele>
        <time>2020-10-02T09:19:08Z</time>
      </trkpt>
      <trkpt lat="43.61777" lon="6.94213">
        <ele>147</ele>
        <time>2020-10-02T09:19:09Z</time>
      </trkpt>
      <trkpt lat="43.61791" lon="6.94287">
        <ele>148</ele>
        <time>2020-10-02T09:19:22Z</time>
      </trkpt>
      <trkpt lat="43.61846" lon="6.94369">
        <ele>153</ele>
        <time>2020-10-02T09:19:41Z</time>
      </trkpt>
      <trkpt lat="43.61872" lon="6.94384">
        <ele>152</ele>
        <time>2020-10-02T09:19:48Z</time>
      </trkpt>
      <trkpt lat="43.61869" lon="6.94405">
        <ele>152</ele>
        <time>2020-10-02T09:19:51Z</time>
      </trkpt>
      <trkpt lat="43.61908" lon="6.94432">
        <ele>151</ele>
        <time>2020-10-02T09:20:01Z</time>
      </trkpt>
      <trkpt lat="43.62212" lon="6.94466">
        <ele>149</ele>
        <time>2020-10-02T09:21:13Z</time>
      </trkpt>
      <trkpt lat="43.62299" lon="6.9447">
        <ele>158</ele>
        <time>2020-10-02T09:21:33Z</time>
      </trkpt>
      <trkpt lat="43.62307" lon="6.94503">
        <ele>159</ele>
        <time>2020-10-02T09:21:39Z</time>
      </trkpt>
      <trkpt lat="43.62387" lon="6.94482">
        <ele>163</ele>
        <time>2020-10-02T09:21:58Z</time>
      </trkpt>
      <trkpt lat="43.6244" lon="6.94446">
        <ele>168</ele>
        <time>2020-10-02T09:22:12Z</time>
      </trkpt>
      <trkpt lat="43.62499" lon="6.94423">
        <ele>175</ele>
        <time>2020-10-02T09:22:26Z</time>
      </trkpt>
      <trkpt lat="43.62533" lon="6.94441">
        <ele>171</ele>
        <time>2020-10-02T09:22:34Z</time>
      </trkpt>
      <trkpt lat="43.62577" lon="6.94433">
        <ele>170</ele>
        <time>2020-10-02T09:22:45Z</time>
      </trkpt>
      <trkpt lat="43.62644" lon="6.94453">
        <ele>172</ele>
        <time>2020-10-02T09:23:01Z</time>
      </trkpt>
      <trkpt lat="43.6272" lon="6.94455">
        <ele>179</ele>
        <time>2020-10-02T09:23:19Z</time>
      </trkpt>
      <trkpt lat="43.62795" lon="6.94528">
        <ele>173</ele>
        <time>2020-10-02T09:23:40Z</time>
      </trkpt>
      <trkpt lat="43.62859" lon="6.94548">
        <ele>170</ele>
        <time>2020-10-02T09:23:55Z</time>
      </trkpt>
      <trkpt lat="43.62932" lon="6.94556">
        <ele>166</ele>
        <time>2020-10-02T09:24:12Z</time>
      </trkpt>
      <trkpt lat="43.62973" lon="6.94608">
        <ele>156</ele>
        <time>2020-10-02T09:24:25Z</time>
      </trkpt>
      <trkpt lat="43.63002" lon="6.94636">
        <ele>152</ele>
        <time>2020-10-02T09:24:34Z</time>
      </trkpt>
      <trkpt lat="43.63045" lon="6.94623">
        <ele>154</ele>
        <time>2020-10-02T09:24:44Z</time>
      </trkpt>
      <trkpt lat="43.63062" lon="6.94651">
        <ele>149</ele>
        <time>2020-10-02T09:24:50Z</time>
      </trkpt>
      <trkpt lat="43.63103" lon="6.9467">
        <ele>146</ele>
        <time>2020-10-02T09:25:00Z</time>
      </trkpt>
      <trkpt lat="43.63133" lon="6.94663">
        <ele>145</ele>
        <time>2020-10-02T09:25:07Z</time>
      </trkpt>
      <trkpt lat="43.63161" lon="6.94739">
        <ele>134</ele>
        <time>2020-10-02T09:25:22Z</time>
      </trkpt>
      <trkpt lat="43.63172" lon="6.94816">
        <ele>127</ele>
        <time>2020-10-02T09:25:35Z</time>
      </trkpt>
      <trkpt lat="43.63208" lon="6.94867">
        <ele>123</ele>
        <time>2020-10-02T09:25:47Z</time>
      </trkpt>
      <trkpt lat="43.63327" lon="6.9489">
        <ele>125</ele>
        <time>2020-10-02T09:26:15Z</time>
      </trkpt>
      <trkpt lat="43.63434" lon="6.94904">
        <ele>124</ele>
        <time>2020-10-02T09:26:40Z</time>
      </trkpt>
      <trkpt lat="43.63446" lon="6.94987">
        <ele>119</ele>
        <time>2020-10-02T09:26:54Z</time>
      </trkpt>
      <trkpt lat="43.63441" lon="6.95068">
        <ele>116</ele>
        <time>2020-10-02T09:27:08Z</time>
      </trkpt>
      <trkpt lat="43.63418" lon="6.95124">
        <ele>115</ele>
        <time>2020-10-02T09:27:19Z</time>
      </trkpt>
      <trkpt lat="43.63376" lon="6.95211">
        <ele>114</ele>
        <time>2020-10-02T09:27:37Z</time>
      </trkpt>
      <trkpt lat="43.6332" lon="6.95359">
        <ele>116</ele>
        <time>2020-10-02T09:28:05Z</time>
      </trkpt>
      <trkpt lat="43.63289" lon="6.95415">
        <ele>116</ele>
        <time>2020-10-02T09:28:17Z</time>
      </trkpt>
      <trkpt lat="43.63278" lon="6.95446">
        <ele>116</ele>
        <time>2020-10-02T09:28:23Z</time>
      </trkpt>
      <trkpt lat="43.63268" lon="6.95421">
        <ele>116</ele>
        <time>2020-10-02T09:28:28Z</time>
      </trkpt>
      <trkpt lat="43.63284" lon="6.95389">
        <ele>116</ele>
        <time>2020-10-02T09:28:34Z</time>
      </trkpt>
      <trkpt lat="43.63276" lon="6.95325">
        <ele>116</ele>
        <time>2020-10-02T09:28:45Z</time>
      </trkpt>
      <trkpt lat="43.63251" lon="6.95321">
        <ele>116</ele>
        <time>2020-10-02T09:28:51Z</time>
      </trkpt>
      <trkpt lat="43.63212" lon="6.95334">
        <ele>116</ele>
        <time>2020-10-02T09:29:00Z</time>
      </trkpt>
      <trkpt lat="43.63183" lon="6.95339">
        <ele>117</ele>
        <time>2020-10-02T09:29:07Z</time>
      </trkpt>
      <trkpt lat="43.63189" lon="6.95366">
        <ele>116</ele>
        <time>2020-10-02T09:29:12Z</time>
      </trkpt>
    </trkseg>
  </trk>
</gpx>